Terminal Aerodrome Forecast
Issued by NWS Corpus Christi, TX

Home | Current Version | Previous Version | Text Only | Print | Product List | Glossary On
Versions: 1 2 3 4 5 6 7 8 9 10 11 12 13
629
FTUS44 KCRP 231942 AAA
TAFCRP
TAF AMD
KCRP 231942Z 2320/2418 35014G21KT P6SM SKC
     FM232100 36011KT P6SM SKC
     FM240200 01005KT P6SM SKC
     FM241500 12007KT P6SM SKC=

USA.gov is the U.S. government's official web portal to all federal, state and local government web resources and services.